sensor_id;sensor_type;location;lat;lon;timestamp;P1;durP1;ratioP1;P2;durP2;ratioP2
9960;SDS011;5021;51.506;11.320;2023-07-29T00:00:32;2.13;;;1.93;;
9960;SDS011;5021;51.506;11.320;2023-07-29T00:02:58;2.80;;;2.00;;
9960;SDS011;5021;51.506;11.320;2023-07-29T00:05:24;2.27;;;2.07;;
9960;SDS011;5021;51.506;11.320;2023-07-29T00:07:50;5.17;;;2.10;;
9960;SDS011;5021;51.506;11.320;2023-07-29T00:10:16;2.47;;;2.27;;
9960;SDS011;5021;51.506;11.320;2023-07-29T00:12:42;2.50;;;2.00;;
9960;SDS011;5021;51.506;11.320;2023-07-29T00:15:08;2.80;;;2.00;;
9960;SDS011;5021;51.506;11.320;2023-07-29T00:17:34;2.30;;;2.10;;
9960;SDS011;5021;51.506;11.320;2023-07-29T00:20:00;2.40;;;2.10;;
9960;SDS011;5021;51.506;11.320;2023-07-29T00:22:26;2.53;;;2.30;;
9960;SDS011;5021;51.506;11.320;2023-07-29T00:24:52;2.97;;;1.97;;
9960;SDS011;5021;51.506;11.320;2023-07-29T00:27:20;2.87;;;2.00;;
9960;SDS011;5021;51.506;11.320;2023-07-29T00:29:45;3.23;;;2.20;;
9960;SDS011;5021;51.506;11.320;2023-07-29T00:32:12;2.73;;;2.20;;
9960;SDS011;5021;51.506;11.320;2023-07-29T00:34:38;2.40;;;2.20;;
9960;SDS011;5021;51.506;11.320;2023-07-29T00:37:03;3.53;;;2.30;;
9960;SDS011;5021;51.506;11.320;2023-07-29T00:39:30;3.63;;;2.73;;
9960;SDS011;5021;51.506;11.320;2023-07-29T00:41:56;2.20;;;2.10;;
9960;SDS011;5021;51.506;11.320;2023-07-29T00:44:22;2.67;;;2.30;;
9960;SDS011;5021;51.506;11.320;2023-07-29T00:46:49;3.10;;;2.50;;
9960;SDS011;5021;51.506;11.320;2023-07-29T00:49:15;3.67;;;2.30;;
9960;SDS011;5021;51.506;11.320;2023-07-29T00:51:41;2.13;;;2.00;;
9960;SDS011;5021;51.506;11.320;2023-07-29T00:54:07;2.37;;;2.00;;
9960;SDS011;5021;51.506;11.320;2023-07-29T00:56:33;3.07;;;2.40;;
9960;SDS011;5021;51.506;11.320;2023-07-29T00:58:59;3.83;;;2.17;;
9960;SDS011;5021;51.506;11.320;2023-07-29T01:01:27;3.60;;;2.13;;
9960;SDS011;5021;51.506;11.320;2023-07-29T01:03:53;4.00;;;2.40;;
9960;SDS011;5021;51.506;11.320;2023-07-29T01:06:23;2.90;;;2.00;;
9960;SDS011;5021;51.506;11.320;2023-07-29T01:08:59;4.13;;;2.13;;
9960;SDS011;5021;51.506;11.320;2023-07-29T01:13:58;2.60;;;2.40;;
9960;SDS011;5021;51.506;11.320;2023-07-29T01:16:30;2.23;;;2.03;;
9960;SDS011;5021;51.506;11.320;2023-07-29T01:18:56;4.30;;;2.03;;
9960;SDS011;5021;51.506;11.320;2023-07-29T01:21:24;2.37;;;2.10;;
9960;SDS011;5021;51.506;11.320;2023-07-29T01:23:57;2.47;;;2.27;;
9960;SDS011;5021;51.506;11.320;2023-07-29T01:26:24;2.77;;;2.20;;
9960;SDS011;5021;51.506;11.320;2023-07-29T01:28:50;3.60;;;2.50;;
9960;SDS011;5021;51.506;11.320;2023-07-29T01:31:16;6.47;;;2.53;;
9960;SDS011;5021;51.506;11.320;2023-07-29T01:33:48;8.13;;;2.50;;
9960;SDS011;5021;51.506;11.320;2023-07-29T01:36:20;3.27;;;2.53;;
9960;SDS011;5021;51.506;11.320;2023-07-29T01:38:50;2.57;;;2.37;;
9960;SDS011;5021;51.506;11.320;2023-07-29T01:41:17;2.90;;;2.70;;
9960;SDS011;5021;51.506;11.320;2023-07-29T01:43:44;3.43;;;2.77;;
9960;SDS011;5021;51.506;11.320;2023-07-29T01:46:11;2.87;;;2.60;;
9960;SDS011;5021;51.506;11.320;2023-07-29T01:48:37;2.87;;;2.60;;
9960;SDS011;5021;51.506;11.320;2023-07-29T01:51:04;3.10;;;2.53;;
9960;SDS011;5021;51.506;11.320;2023-07-29T01:53:30;3.10;;;2.80;;
9960;SDS011;5021;51.506;11.320;2023-07-29T01:55:55;3.10;;;2.80;;
9960;SDS011;5021;51.506;11.320;2023-07-29T01:58:22;3.77;;;2.63;;
9960;SDS011;5021;51.506;11.320;2023-07-29T02:00:48;2.80;;;2.50;;
9960;SDS011;5021;51.506;11.320;2023-07-29T02:03:14;2.73;;;2.43;;
9960;SDS011;5021;51.506;11.320;2023-07-29T02:05:40;2.93;;;2.63;;
9960;SDS011;5021;51.506;11.320;2023-07-29T02:08:08;3.43;;;3.13;;
9960;SDS011;5021;51.506;11.320;2023-07-29T02:10:34;2.90;;;2.70;;
9960;SDS011;5021;51.506;11.320;2023-07-29T02:13:00;3.03;;;2.73;;
9960;SDS011;5021;51.506;11.320;2023-07-29T02:15:26;2.90;;;2.70;;
9960;SDS011;5021;51.506;11.320;2023-07-29T02:17:53;3.63;;;2.83;;
9960;SDS011;5021;51.506;11.320;2023-07-29T02:20:19;3.30;;;2.80;;
9960;SDS011;5021;51.506;11.320;2023-07-29T02:22:45;3.40;;;2.83;;
9960;SDS011;5021;51.506;11.320;2023-07-29T02:25:12;2.70;;;2.50;;
9960;SDS011;5021;51.506;11.320;2023-07-29T02:27:38;2.70;;;2.50;;
9960;SDS011;5021;51.506;11.320;2023-07-29T02:30:04;3.03;;;2.20;;
9960;SDS011;5021;51.506;11.320;2023-07-29T02:32:30;2.40;;;2.20;;
9960;SDS011;5021;51.506;11.320;2023-07-29T02:34:56;2.80;;;2.60;;
9960;SDS011;5021;51.506;11.320;2023-07-29T02:37:22;2.53;;;2.33;;
9960;SDS011;5021;51.506;11.320;2023-07-29T02:39:48;2.63;;;2.33;;
9960;SDS011;5021;51.506;11.320;2023-07-29T02:42:14;3.23;;;2.47;;
9960;SDS011;5021;51.506;11.320;2023-07-29T02:44:40;3.10;;;2.40;;
9960;SDS011;5021;51.506;11.320;2023-07-29T02:47:06;2.40;;;2.20;;
9960;SDS011;5021;51.506;11.320;2023-07-29T02:49:32;3.53;;;2.10;;
9960;SDS011;5021;51.506;11.320;2023-07-29T02:51:58;2.30;;;2.10;;
9960;SDS011;5021;51.506;11.320;2023-07-29T02:54:24;2.57;;;2.37;;
9960;SDS011;5021;51.506;11.320;2023-07-29T02:56:50;3.47;;;2.20;;
9960;SDS011;5021;51.506;11.320;2023-07-29T02:59:16;3.00;;;2.17;;
9960;SDS011;5021;51.506;11.320;2023-07-29T03:01:42;3.07;;;2.30;;
9960;SDS011;5021;51.506;11.320;2023-07-29T03:04:08;3.30;;;2.33;;
9960;SDS011;5021;51.506;11.320;2023-07-29T03:06:34;2.90;;;2.60;;
9960;SDS011;5021;51.506;11.320;2023-07-29T03:09:00;2.60;;;2.40;;
9960;SDS011;5021;51.506;11.320;2023-07-29T03:11:26;3.77;;;2.40;;
9960;SDS011;5021;51.506;11.320;2023-07-29T03:13:52;3.70;;;2.63;;
9960;SDS011;5021;51.506;11.320;2023-07-29T03:16:18;4.33;;;2.43;;
9960;SDS011;5021;51.506;11.320;2023-07-29T03:18:43;2.40;;;2.20;;
9960;SDS011;5021;51.506;11.320;2023-07-29T03:21:10;2.50;;;2.10;;
9960;SDS011;5021;51.506;11.320;2023-07-29T03:23:36;2.60;;;2.40;;
9960;SDS011;5021;51.506;11.320;2023-07-29T03:26:02;3.80;;;2.53;;
9960;SDS011;5021;51.506;11.320;2023-07-29T03:28:34;3.00;;;2.37;;
9960;SDS011;5021;51.506;11.320;2023-07-29T03:31:00;3.80;;;2.73;;
9960;SDS011;5021;51.506;11.320;2023-07-29T03:33:26;3.30;;;3.00;;
9960;SDS011;5021;51.506;11.320;2023-07-29T03:35:52;3.60;;;2.60;;
9960;SDS011;5021;51.506;11.320;2023-07-29T03:38:18;2.60;;;2.27;;
9960;SDS011;5021;51.506;11.320;2023-07-29T03:40:44;2.43;;;2.17;;
9960;SDS011;5021;51.506;11.320;2023-07-29T03:43:10;2.83;;;2.53;;
9960;SDS011;5021;51.506;11.320;2023-07-29T03:45:37;2.63;;;2.43;;
9960;SDS011;5021;51.506;11.320;2023-07-29T03:48:03;3.10;;;2.90;;
9960;SDS011;5021;51.506;11.320;2023-07-29T03:50:29;2.70;;;2.50;;
9960;SDS011;5021;51.506;11.320;2023-07-29T03:52:56;2.97;;;2.60;;
9960;SDS011;5021;51.506;11.320;2023-07-29T03:55:22;3.03;;;2.73;;
9960;SDS011;5021;51.506;11.320;2023-07-29T03:57:48;2.70;;;2.50;;
9960;SDS011;5021;51.506;11.320;2023-07-29T04:00:14;2.60;;;2.40;;
9960;SDS011;5021;51.506;11.320;2023-07-29T04:02:43;2.53;;;2.33;;
9960;SDS011;5021;51.506;11.320;2023-07-29T04:05:10;3.27;;;2.30;;
9960;SDS011;5021;51.506;11.320;2023-07-29T04:07:36;6.33;;;2.73;;
9960;SDS011;5021;51.506;11.320;2023-07-29T04:10:03;2.70;;;2.50;;
9960;SDS011;5021;51.506;11.320;2023-07-29T04:12:29;3.93;;;2.70;;
9960;SDS011;5021;51.506;11.320;2023-07-29T04:14:55;4.37;;;2.60;;
9960;SDS011;5021;51.506;11.320;2023-07-29T04:17:21;2.60;;;2.40;;
9960;SDS011;5021;51.506;11.320;2023-07-29T04:19:47;7.00;;;2.77;;
9960;SDS011;5021;51.506;11.320;2023-07-29T04:22:14;3.57;;;3.23;;
9960;SDS011;5021;51.506;11.320;2023-07-29T04:24:40;3.07;;;2.77;;
9960;SDS011;5021;51.506;11.320;2023-07-29T04:27:06;3.80;;;3.03;;
9960;SDS011;5021;51.506;11.320;2023-07-29T04:29:32;4.73;;;3.17;;
9960;SDS011;5021;51.506;11.320;2023-07-29T04:31:58;2.70;;;2.50;;
9960;SDS011;5021;51.506;11.320;2023-07-29T04:34:24;5.70;;;2.50;;
9960;SDS011;5021;51.506;11.320;2023-07-29T04:36:50;2.50;;;2.30;;
9960;SDS011;5021;51.506;11.320;2023-07-29T04:39:16;3.00;;;2.53;;
9960;SDS011;5021;51.506;11.320;2023-07-29T04:41:42;2.90;;;2.60;;
9960;SDS011;5021;51.506;11.320;2023-07-29T04:44:08;3.20;;;2.20;;
9960;SDS011;5021;51.506;11.320;2023-07-29T04:46:35;2.50;;;2.30;;
9960;SDS011;5021;51.506;11.320;2023-07-29T04:49:00;2.70;;;2.50;;
9960;SDS011;5021;51.506;11.320;2023-07-29T04:51:27;2.83;;;2.23;;
9960;SDS011;5021;51.506;11.320;2023-07-29T04:53:53;2.87;;;2.60;;
9960;SDS011;5021;51.506;11.320;2023-07-29T04:56:19;4.07;;;2.70;;
9960;SDS011;5021;51.506;11.320;2023-07-29T04:58:45;4.03;;;2.70;;
9960;SDS011;5021;51.506;11.320;2023-07-29T05:01:11;2.93;;;2.70;;
9960;SDS011;5021;51.506;11.320;2023-07-29T05:03:37;4.43;;;3.07;;
9960;SDS011;5021;51.506;11.320;2023-07-29T05:06:04;2.70;;;2.50;;
9960;SDS011;5021;51.506;11.320;2023-07-29T05:08:30;2.90;;;2.60;;
9960;SDS011;5021;51.506;11.320;2023-07-29T05:10:56;2.60;;;2.40;;
9960;SDS011;5021;51.506;11.320;2023-07-29T05:13:22;3.50;;;2.60;;
9960;SDS011;5021;51.506;11.320;2023-07-29T05:15:49;2.80;;;2.60;;
9960;SDS011;5021;51.506;11.320;2023-07-29T05:18:15;2.83;;;2.63;;
9960;SDS011;5021;51.506;11.320;2023-07-29T05:20:41;5.43;;;3.00;;
9960;SDS011;5021;51.506;11.320;2023-07-29T05:23:07;3.40;;;3.10;;
9960;SDS011;5021;51.506;11.320;2023-07-29T05:25:33;3.77;;;2.80;;
9960;SDS011;5021;51.506;11.320;2023-07-29T05:28:02;2.83;;;2.63;;
9960;SDS011;5021;51.506;11.320;2023-07-29T05:30:28;3.03;;;2.83;;
9960;SDS011;5021;51.506;11.320;2023-07-29T05:32:56;3.63;;;3.33;;
9960;SDS011;5021;51.506;11.320;2023-07-29T05:35:22;3.27;;;2.60;;
9960;SDS011;5021;51.506;11.320;2023-07-29T05:37:48;4.97;;;3.17;;
9960;SDS011;5021;51.506;11.320;2023-07-29T05:40:14;3.10;;;2.80;;
9960;SDS011;5021;51.506;11.320;2023-07-29T05:42:40;2.60;;;2.40;;
9960;SDS011;5021;51.506;11.320;2023-07-29T05:45:06;2.63;;;2.43;;
9960;SDS011;5021;51.506;11.320;2023-07-29T05:47:32;2.90;;;2.70;;
9960;SDS011;5021;51.506;11.320;2023-07-29T05:49:58;3.23;;;2.60;;
9960;SDS011;5021;51.506;11.320;2023-07-29T05:52:28;2.73;;;2.53;;
9960;SDS011;5021;51.506;11.320;2023-07-29T05:54:53;4.23;;;2.90;;
9960;SDS011;5021;51.506;11.320;2023-07-29T05:57:19;3.03;;;2.67;;
9960;SDS011;5021;51.506;11.320;2023-07-29T05:59:45;2.80;;;2.60;;
9960;SDS011;5021;51.506;11.320;2023-07-29T06:02:11;2.97;;;2.60;;
9960;SDS011;5021;51.506;11.320;2023-07-29T06:04:37;2.77;;;2.57;;
9960;SDS011;5021;51.506;11.320;2023-07-29T06:07:03;2.40;;;2.20;;
9960;SDS011;5021;51.506;11.320;2023-07-29T06:09:29;3.60;;;2.57;;
9960;SDS011;5021;51.506;11.320;2023-07-29T06:11:55;2.37;;;2.17;;
9960;SDS011;5021;51.506;11.320;2023-07-29T06:14:21;2.50;;;2.30;;
9960;SDS011;5021;51.506;11.320;2023-07-29T06:16:47;2.20;;;2.00;;
9960;SDS011;5021;51.506;11.320;2023-07-29T06:19:13;2.20;;;2.00;;
9960;SDS011;5021;51.506;11.320;2023-07-29T06:21:39;2.50;;;2.00;;
9960;SDS011;5021;51.506;11.320;2023-07-29T06:24:05;1.80;;;1.70;;
9960;SDS011;5021;51.506;11.320;2023-07-29T06:26:31;3.87;;;1.90;;
9960;SDS011;5021;51.506;11.320;2023-07-29T06:28:57;3.93;;;2.00;;
9960;SDS011;5021;51.506;11.320;2023-07-29T06:31:23;1.77;;;1.67;;
9960;SDS011;5021;51.506;11.320;2023-07-29T06:33:49;2.37;;;1.90;;
9960;SDS011;5021;51.506;11.320;2023-07-29T06:36:15;1.97;;;1.87;;
9960;SDS011;5021;51.506;11.320;2023-07-29T06:38:40;2.60;;;1.80;;
9960;SDS011;5021;51.506;11.320;2023-07-29T06:41:06;2.23;;;2.03;;
9960;SDS011;5021;51.506;11.320;2023-07-29T06:43:32;1.90;;;1.73;;
9960;SDS011;5021;51.506;11.320;2023-07-29T06:45:58;1.90;;;1.80;;
9960;SDS011;5021;51.506;11.320;2023-07-29T06:48:24;1.40;;;1.30;;
9960;SDS011;5021;51.506;11.320;2023-07-29T06:50:50;2.80;;;1.70;;
9960;SDS011;5021;51.506;11.320;2023-07-29T06:53:17;3.90;;;1.63;;
9960;SDS011;5021;51.506;11.320;2023-07-29T06:55:43;1.60;;;1.50;;
9960;SDS011;5021;51.506;11.320;2023-07-29T06:58:10;1.73;;;1.63;;
9960;SDS011;5021;51.506;11.320;2023-07-29T07:00:36;2.90;;;1.60;;
9960;SDS011;5021;51.506;11.320;2023-07-29T07:03:02;1.77;;;1.67;;
9960;SDS011;5021;51.506;11.320;2023-07-29T07:05:27;2.13;;;1.53;;
9960;SDS011;5021;51.506;11.320;2023-07-29T07:07:53;2.93;;;1.70;;
9960;SDS011;5021;51.506;11.320;2023-07-29T07:10:19;2.60;;;1.60;;
9960;SDS011;5021;51.506;11.320;2023-07-29T07:12:45;2.37;;;1.70;;
9960;SDS011;5021;51.506;11.320;2023-07-29T07:15:11;1.47;;;1.37;;
9960;SDS011;5021;51.506;11.320;2023-07-29T07:17:37;2.50;;;1.47;;
9960;SDS011;5021;51.506;11.320;2023-07-29T07:20:03;1.73;;;1.40;;
9960;SDS011;5021;51.506;11.320;2023-07-29T07:22:29;2.13;;;1.50;;
9960;SDS011;5021;51.506;11.320;2023-07-29T07:24:55;1.80;;;1.70;;
9960;SDS011;5021;51.506;11.320;2023-07-29T07:27:21;1.63;;;1.53;;
9960;SDS011;5021;51.506;11.320;2023-07-29T07:29:47;3.13;;;1.60;;
9960;SDS011;5021;51.506;11.320;2023-07-29T07:32:13;1.80;;;1.70;;
9960;SDS011;5021;51.506;11.320;2023-07-29T07:34:39;2.20;;;1.57;;
9960;SDS011;5021;51.506;11.320;2023-07-29T07:37:05;2.83;;;1.60;;
9960;SDS011;5021;51.506;11.320;2023-07-29T07:39:31;2.50;;;1.30;;
9960;SDS011;5021;51.506;11.320;2023-07-29T07:41:58;1.60;;;1.30;;
9960;SDS011;5021;51.506;11.320;2023-07-29T07:44:24;1.80;;;1.50;;
9960;SDS011;5021;51.506;11.320;2023-07-29T07:46:51;1.73;;;1.60;;
9960;SDS011;5021;51.506;11.320;2023-07-29T07:49:17;1.57;;;1.47;;
9960;SDS011;5021;51.506;11.320;2023-07-29T07:51:43;3.00;;;1.63;;
9960;SDS011;5021;51.506;11.320;2023-07-29T07:54:09;2.20;;;1.60;;
9960;SDS011;5021;51.506;11.320;2023-07-29T07:56:35;2.20;;;1.73;;
9960;SDS011;5021;51.506;11.320;2023-07-29T07:59:04;3.00;;;1.70;;
9960;SDS011;5021;51.506;11.320;2023-07-29T08:01:36;1.60;;;1.50;;
9960;SDS011;5021;51.506;11.320;2023-07-29T08:04:02;1.80;;;1.50;;
9960;SDS011;5021;51.506;11.320;2023-07-29T08:06:29;2.47;;;1.53;;
9960;SDS011;5021;51.506;11.320;2023-07-29T08:08:56;2.60;;;1.60;;
9960;SDS011;5021;51.506;11.320;2023-07-29T08:11:22;1.63;;;1.53;;
9960;SDS011;5021;51.506;11.320;2023-07-29T08:13:47;3.17;;;1.70;;
9960;SDS011;5021;51.506;11.320;2023-07-29T08:16:13;2.40;;;1.70;;
9960;SDS011;5021;51.506;11.320;2023-07-29T08:18:40;1.97;;;1.67;;
9960;SDS011;5021;51.506;11.320;2023-07-29T08:21:06;1.50;;;1.40;;
9960;SDS011;5021;51.506;11.320;2023-07-29T08:23:33;1.83;;;1.43;;
9960;SDS011;5021;51.506;11.320;2023-07-29T08:25:59;2.50;;;1.73;;
9960;SDS011;5021;51.506;11.320;2023-07-29T08:28:27;2.20;;;1.70;;
9960;SDS011;5021;51.506;11.320;2023-07-29T08:30:53;1.50;;;1.40;;
9960;SDS011;5021;51.506;11.320;2023-07-29T08:33:19;1.70;;;1.60;;
9960;SDS011;5021;51.506;11.320;2023-07-29T08:35:45;1.50;;;1.40;;
9960;SDS011;5021;51.506;11.320;2023-07-29T08:38:11;1.50;;;1.40;;
9960;SDS011;5021;51.506;11.320;2023-07-29T08:40:37;1.87;;;1.43;;
9960;SDS011;5021;51.506;11.320;2023-07-29T08:43:07;2.27;;;1.50;;
9960;SDS011;5021;51.506;11.320;2023-07-29T08:45:34;2.57;;;1.60;;
9960;SDS011;5021;51.506;11.320;2023-07-29T08:48:01;1.50;;;1.40;;
9960;SDS011;5021;51.506;11.320;2023-07-29T08:50:28;2.60;;;1.80;;
9960;SDS011;5021;51.506;11.320;2023-07-29T08:52:55;2.13;;;1.50;;
9960;SDS011;5021;51.506;11.320;2023-07-29T08:55:21;1.50;;;1.40;;
9960;SDS011;5021;51.506;11.320;2023-07-29T08:57:47;1.40;;;1.30;;
9960;SDS011;5021;51.506;11.320;2023-07-29T09:00:14;1.33;;;1.20;;
9960;SDS011;5021;51.506;11.320;2023-07-29T09:02:40;1.40;;;1.30;;
9960;SDS011;5021;51.506;11.320;2023-07-29T09:05:06;1.33;;;1.23;;
9960;SDS011;5021;51.506;11.320;2023-07-29T09:07:32;1.43;;;1.27;;
9960;SDS011;5021;51.506;11.320;2023-07-29T09:09:59;1.80;;;1.30;;
9960;SDS011;5021;51.506;11.320;2023-07-29T09:12:25;2.83;;;1.40;;
9960;SDS011;5021;51.506;11.320;2023-07-29T09:14:52;1.60;;;1.50;;
9960;SDS011;5021;51.506;11.320;2023-07-29T09:17:19;1.30;;;1.20;;
9960;SDS011;5021;51.506;11.320;2023-07-29T09:19:49;1.40;;;1.30;;
9960;SDS011;5021;51.506;11.320;2023-07-29T09:22:21;2.07;;;1.50;;
9960;SDS011;5021;51.506;11.320;2023-07-29T09:24:47;1.50;;;1.40;;
9960;SDS011;5021;51.506;11.320;2023-07-29T09:27:23;2.80;;;1.27;;
9960;SDS011;5021;51.506;11.320;2023-07-29T09:29:49;4.03;;;1.60;;
9960;SDS011;5021;51.506;11.320;2023-07-29T09:32:19;1.70;;;1.60;;
9960;SDS011;5021;51.506;11.320;2023-07-29T09:34:45;2.23;;;1.70;;
9960;SDS011;5021;51.506;11.320;2023-07-29T09:37:20;2.00;;;1.20;;
9960;SDS011;5021;51.506;11.320;2023-07-29T09:39:47;2.17;;;1.40;;
9960;SDS011;5021;51.506;11.320;2023-07-29T09:42:17;1.70;;;1.60;;
9960;SDS011;5021;51.506;11.320;2023-07-29T09:44:44;1.83;;;1.30;;
9960;SDS011;5021;51.506;11.320;2023-07-29T09:47:17;1.73;;;1.60;;
9960;SDS011;5021;51.506;11.320;2023-07-29T09:49:44;1.57;;;1.43;;
9960;SDS011;5021;51.506;11.320;2023-07-29T09:52:10;1.50;;;1.40;;
9960;SDS011;5021;51.506;11.320;2023-07-29T09:54:36;1.77;;;1.43;;
9960;SDS011;5021;51.506;11.320;2023-07-29T09:57:02;1.57;;;1.47;;
9960;SDS011;5021;51.506;11.320;2023-07-29T09:59:33;1.67;;;1.40;;
9960;SDS011;5021;51.506;11.320;2023-07-29T10:01:59;2.20;;;1.50;;
9960;SDS011;5021;51.506;11.320;2023-07-29T10:04:25;1.53;;;1.43;;
9960;SDS011;5021;51.506;11.320;2023-07-29T10:06:52;3.87;;;1.60;;
9960;SDS011;5021;51.506;11.320;2023-07-29T10:09:18;1.67;;;1.50;;
9960;SDS011;5021;51.506;11.320;2023-07-29T10:11:44;1.50;;;1.40;;
9960;SDS011;5021;51.506;11.320;2023-07-29T10:14:10;1.77;;;1.40;;
9960;SDS011;5021;51.506;11.320;2023-07-29T10:16:37;1.70;;;1.47;;
9960;SDS011;5021;51.506;11.320;2023-07-29T10:19:03;1.60;;;1.50;;
9960;SDS011;5021;51.506;11.320;2023-07-29T10:21:29;1.63;;;1.53;;
9960;SDS011;5021;51.506;11.320;2023-07-29T10:23:56;2.23;;;1.80;;
9960;SDS011;5021;51.506;11.320;2023-07-29T10:26:24;1.80;;;1.67;;
9960;SDS011;5021;51.506;11.320;2023-07-29T10:28:51;1.70;;;1.30;;
9960;SDS011;5021;51.506;11.320;2023-07-29T10:31:18;1.50;;;1.33;;
9960;SDS011;5021;51.506;11.320;2023-07-29T10:33:44;1.90;;;1.70;;
9960;SDS011;5021;51.506;11.320;2023-07-29T10:36:11;2.07;;;1.70;;
9960;SDS011;5021;51.506;11.320;2023-07-29T10:38:37;1.50;;;1.40;;
9960;SDS011;5021;51.506;11.320;2023-07-29T10:41:03;2.07;;;1.50;;
9960;SDS011;5021;51.506;11.320;2023-07-29T10:43:33;1.50;;;1.40;;
9960;SDS011;5021;51.506;11.320;2023-07-29T10:56:34;2.00;;;1.77;;
9960;SDS011;5021;51.506;11.320;2023-07-29T11:01:41;1.73;;;1.63;;
9960;SDS011;5021;51.506;11.320;2023-07-29T11:09:42;2.80;;;1.80;;
9960;SDS011;5021;51.506;11.320;2023-07-29T11:14:53;1.90;;;1.70;;
9960;SDS011;5021;51.506;11.320;2023-07-29T11:17:19;1.80;;;1.70;;
9960;SDS011;5021;51.506;11.320;2023-07-29T11:19:45;3.50;;;1.70;;
9960;SDS011;5021;51.506;11.320;2023-07-29T11:22:11;1.70;;;1.60;;
9960;SDS011;5021;51.506;11.320;2023-07-29T11:24:37;1.77;;;1.67;;
9960;SDS011;5021;51.506;11.320;2023-07-29T11:27:03;2.80;;;1.60;;
9960;SDS011;5021;51.506;11.320;2023-07-29T11:29:29;1.83;;;1.60;;
9960;SDS011;5021;51.506;11.320;2023-07-29T11:31:55;2.23;;;1.50;;
9960;SDS011;5021;51.506;11.320;2023-07-29T11:34:31;2.17;;;1.63;;
9960;SDS011;5021;51.506;11.320;2023-07-29T11:36:57;1.77;;;1.67;;
9960;SDS011;5021;51.506;11.320;2023-07-29T11:39:23;1.50;;;1.40;;
9960;SDS011;5021;51.506;11.320;2023-07-29T11:41:49;2.17;;;1.70;;
9960;SDS011;5021;51.506;11.320;2023-07-29T11:44:18;2.70;;;1.33;;
9960;SDS011;5021;51.506;11.320;2023-07-29T11:46:44;1.70;;;1.60;;
9960;SDS011;5021;51.506;11.320;2023-07-29T11:49:10;2.23;;;1.50;;
9960;SDS011;5021;51.506;11.320;2023-07-29T11:51:36;1.77;;;1.40;;
9960;SDS011;5021;51.506;11.320;2023-07-29T11:54:02;1.60;;;1.50;;
9960;SDS011;5021;51.506;11.320;2023-07-29T11:56:28;1.63;;;1.50;;
9960;SDS011;5021;51.506;11.320;2023-07-29T11:58:55;2.03;;;1.73;;
9960;SDS011;5021;51.506;11.320;2023-07-29T12:01:21;1.80;;;1.70;;
9960;SDS011;5021;51.506;11.320;2023-07-29T12:03:47;1.80;;;1.70;;
9960;SDS011;5021;51.506;11.320;2023-07-29T12:06:14;2.00;;;1.60;;
9960;SDS011;5021;51.506;11.320;2023-07-29T12:08:41;2.27;;;1.70;;
9960;SDS011;5021;51.506;11.320;2023-07-29T12:11:08;3.28;;;1.80;;
9960;SDS011;5021;51.506;11.320;2023-07-29T12:13:35;1.48;;;1.38;;
9960;SDS011;5021;51.506;11.320;2023-07-29T12:16:02;1.60;;;1.50;;
9960;SDS011;5021;51.506;11.320;2023-07-29T12:18:35;1.87;;;1.77;;
9960;SDS011;5021;51.506;11.320;2023-07-29T12:21:02;1.92;;;1.70;;
9960;SDS011;5021;51.506;11.320;2023-07-29T12:23:28;6.55;;;1.60;;
9960;SDS011;5021;51.506;11.320;2023-07-29T12:25:58;3.47;;;1.80;;
9960;SDS011;5021;51.506;11.320;2023-07-29T12:28:25;2.25;;;1.92;;
9960;SDS011;5021;51.506;11.320;2023-07-29T12:30:57;1.80;;;1.70;;
9960;SDS011;5021;51.506;11.320;2023-07-29T12:33:30;2.38;;;1.65;;
9960;SDS011;5021;51.506;11.320;2023-07-29T12:35:56;1.83;;;1.73;;
9960;SDS011;5021;51.506;11.320;2023-07-29T12:38:22;4.15;;;2.42;;
9960;SDS011;5021;51.506;11.320;2023-07-29T12:40:48;2.80;;;1.58;;
9960;SDS011;5021;51.506;11.320;2023-07-29T12:43:14;1.70;;;1.60;;
9960;SDS011;5021;51.506;11.320;2023-07-29T12:45:40;1.73;;;1.58;;
9960;SDS011;5021;51.506;11.320;2023-07-29T12:48:07;1.60;;;1.50;;
9960;SDS011;5021;51.506;11.320;2023-07-29T12:50:33;2.22;;;1.80;;
9960;SDS011;5021;51.506;11.320;2023-07-29T12:52:59;2.72;;;1.70;;
9960;SDS011;5021;51.506;11.320;2023-07-29T12:55:25;2.13;;;1.93;;
9960;SDS011;5021;51.506;11.320;2023-07-29T12:57:51;2.08;;;1.83;;
9960;SDS011;5021;51.506;11.320;2023-07-29T13:00:17;2.83;;;1.70;;
9960;SDS011;5021;51.506;11.320;2023-07-29T13:02:43;3.17;;;1.95;;
9960;SDS011;5021;51.506;11.320;2023-07-29T13:05:10;2.10;;;1.90;;
9960;SDS011;5021;51.506;11.320;2023-07-29T13:07:39;2.72;;;1.77;;
9960;SDS011;5021;51.506;11.320;2023-07-29T13:10:05;1.83;;;1.60;;
9960;SDS011;5021;51.506;11.320;2023-07-29T13:12:32;1.90;;;1.80;;
9960;SDS011;5021;51.506;11.320;2023-07-29T13:14:58;3.27;;;1.80;;
9960;SDS011;5021;51.506;11.320;2023-07-29T13:17:24;3.67;;;2.03;;
9960;SDS011;5021;51.506;11.320;2023-07-29T13:19:50;6.13;;;2.40;;
9960;SDS011;5021;51.506;11.320;2023-07-29T13:22:16;3.00;;;1.90;;
9960;SDS011;5021;51.506;11.320;2023-07-29T13:24:42;2.00;;;1.80;;
9960;SDS011;5021;51.506;11.320;2023-07-29T13:27:08;1.80;;;1.70;;
9960;SDS011;5021;51.506;11.320;2023-07-29T13:29:34;3.17;;;1.63;;
9960;SDS011;5021;51.506;11.320;2023-07-29T13:32:00;1.73;;;1.57;;
9960;SDS011;5021;51.506;11.320;2023-07-29T13:34:26;1.90;;;1.80;;
9960;SDS011;5021;51.506;11.320;2023-07-29T13:36:52;2.10;;;1.73;;
9960;SDS011;5021;51.506;11.320;2023-07-29T13:39:18;2.80;;;1.70;;
9960;SDS011;5021;51.506;11.320;2023-07-29T13:41:44;1.70;;;1.60;;
9960;SDS011;5021;51.506;11.320;2023-07-29T13:44:10;2.43;;;1.60;;
9960;SDS011;5021;51.506;11.320;2023-07-29T13:46:36;2.23;;;1.57;;
9960;SDS011;5021;51.506;11.320;2023-07-29T13:49:02;2.20;;;1.60;;
9960;SDS011;5021;51.506;11.320;2023-07-29T13:51:28;4.57;;;1.90;;
9960;SDS011;5021;51.506;11.320;2023-07-29T13:53:54;2.77;;;1.90;;
9960;SDS011;5021;51.506;11.320;2023-07-29T13:56:21;2.87;;;1.80;;
9960;SDS011;5021;51.506;11.320;2023-07-29T13:58:47;2.00;;;1.80;;
9960;SDS011;5021;51.506;11.320;2023-07-29T14:01:13;3.70;;;1.90;;
9960;SDS011;5021;51.506;11.320;2023-07-29T14:03:39;2.93;;;2.17;;
9960;SDS011;5021;51.506;11.320;2023-07-29T14:06:05;2.70;;;2.47;;
9960;SDS011;5021;51.506;11.320;2023-07-29T14:08:31;2.90;;;2.23;;
9960;SDS011;5021;51.506;11.320;2023-07-29T14:10:57;5.57;;;1.90;;
9960;SDS011;5021;51.506;11.320;2023-07-29T14:13:23;2.57;;;2.30;;
9960;SDS011;5021;51.506;11.320;2023-07-29T14:15:49;2.10;;;2.00;;
9960;SDS011;5021;51.506;11.320;2023-07-29T14:18:15;4.13;;;2.43;;
9960;SDS011;5021;51.506;11.320;2023-07-29T14:20:41;2.37;;;2.17;;
9960;SDS011;5021;51.506;11.320;2023-07-29T14:23:07;2.97;;;2.50;;
9960;SDS011;5021;51.506;11.320;2023-07-29T14:25:33;2.37;;;2.17;;
9960;SDS011;5021;51.506;11.320;2023-07-29T14:27:59;3.17;;;2.27;;
9960;SDS011;5021;51.506;11.320;2023-07-29T14:30:24;2.50;;;2.17;;
9960;SDS011;5021;51.506;11.320;2023-07-29T14:32:50;3.60;;;2.27;;
9960;SDS011;5021;51.506;11.320;2023-07-29T14:35:16;3.60;;;1.97;;
9960;SDS011;5021;51.506;11.320;2023-07-29T14:37:42;3.53;;;2.30;;
9960;SDS011;5021;51.506;11.320;2023-07-29T14:40:08;2.73;;;2.30;;
9960;SDS011;5021;51.506;11.320;2023-07-29T14:42:34;2.60;;;2.40;;
9960;SDS011;5021;51.506;11.320;2023-07-29T14:45:00;2.67;;;2.40;;
9960;SDS011;5021;51.506;11.320;2023-07-29T14:47:26;2.60;;;2.40;;
9960;SDS011;5021;51.506;11.320;2023-07-29T14:49:52;2.73;;;2.50;;
9960;SDS011;5021;51.506;11.320;2023-07-29T14:52:18;2.60;;;2.40;;
9960;SDS011;5021;51.506;11.320;2023-07-29T14:54:44;2.53;;;2.33;;
9960;SDS011;5021;51.506;11.320;2023-07-29T14:57:10;3.13;;;2.40;;
9960;SDS011;5021;51.506;11.320;2023-07-29T14:59:36;2.70;;;2.40;;
9960;SDS011;5021;51.506;11.320;2023-07-29T15:02:02;3.13;;;2.47;;
9960;SDS011;5021;51.506;11.320;2023-07-29T15:04:28;2.43;;;2.23;;
9960;SDS011;5021;51.506;11.320;2023-07-29T15:06:54;2.60;;;2.40;;
9960;SDS011;5021;51.506;11.320;2023-07-29T15:09:20;4.33;;;2.93;;
9960;SDS011;5021;51.506;11.320;2023-07-29T15:11:46;4.40;;;2.57;;
9960;SDS011;5021;51.506;11.320;2023-07-29T15:14:12;3.37;;;3.00;;
9960;SDS011;5021;51.506;11.320;2023-07-29T15:16:38;2.83;;;2.60;;
9960;SDS011;5021;51.506;11.320;2023-07-29T15:19:04;2.93;;;2.57;;